sensor_id;sensor_type;location;lat;lon;timestamp;temperature;humidity
71942;DHT22;59997;53.300;-6.260;2023-06-26T00:02:00;11.80;84.48
71942;DHT22;59997;53.300;-6.260;2023-06-26T00:04:25;11.80;84.41
71942;DHT22;59997;53.300;-6.260;2023-06-26T00:06:51;11.74;84.42
71942;DHT22;59997;53.300;-6.260;2023-06-26T00:09:16;11.66;84.77
71942;DHT22;59997;53.300;-6.260;2023-06-26T00:11:42;11.52;84.87
71942;DHT22;59997;53.300;-6.260;2023-06-26T00:14:07;11.49;85.01
71942;DHT22;59997;53.300;-6.260;2023-06-26T00:16:33;11.47;85.13
71942;DHT22;59997;53.300;-6.260;2023-06-26T00:18:59;11.46;85.17
71942;DHT22;59997;53.300;-6.260;2023-06-26T00:21:25;11.52;85.16
71942;DHT22;59997;53.300;-6.260;2023-06-26T00:23:51;11.52;85.07
71942;DHT22;59997;53.300;-6.260;2023-06-26T00:26:16;11.57;84.96
71942;DHT22;59997;53.300;-6.260;2023-06-26T00:28:42;11.59;84.95
71942;DHT22;59997;53.300;-6.260;2023-06-26T00:31:07;11.62;84.97
71942;DHT22;59997;53.300;-6.260;2023-06-26T00:33:33;11.63;84.78
71942;DHT22;59997;53.300;-6.260;2023-06-26T00:35:59;11.62;84.82
71942;DHT22;59997;53.300;-6.260;2023-06-26T00:38:24;11.57;84.88
71942;DHT22;59997;53.300;-6.260;2023-06-26T00:40:50;11.53;84.91
71942;DHT22;59997;53.300;-6.260;2023-06-26T00:43:15;11.53;85.05
71942;DHT22;59997;53.300;-6.260;2023-06-26T00:45:41;11.56;85.13
71942;DHT22;59997;53.300;-6.260;2023-06-26T00:48:06;11.59;85.00
71942;DHT22;59997;53.300;-6.260;2023-06-26T00:50:32;11.67;84.95
71942;DHT22;59997;53.300;-6.260;2023-06-26T00:52:58;11.63;84.99
71942;DHT22;59997;53.300;-6.260;2023-06-26T00:55:26;11.71;84.91
71942;DHT22;59997;53.300;-6.260;2023-06-26T00:57:53;11.74;84.89
71942;DHT22;59997;53.300;-6.260;2023-06-26T01:00:19;11.71;84.90
71942;DHT22;59997;53.300;-6.260;2023-06-26T01:02:44;11.71;84.85
71942;DHT22;59997;53.300;-6.260;2023-06-26T01:05:10;11.64;84.95
71942;DHT22;59997;53.300;-6.260;2023-06-26T01:07:38;11.64;85.05
71942;DHT22;59997;53.300;-6.260;2023-06-26T01:10:05;11.78;84.89
71942;DHT22;59997;53.300;-6.260;2023-06-26T01:12:32;11.89;84.77
71942;DHT22;59997;53.300;-6.260;2023-06-26T01:14:59;11.91;84.69
71942;DHT22;59997;53.300;-6.260;2023-06-26T01:17:26;11.97;84.64
71942;DHT22;59997;53.300;-6.260;2023-06-26T01:19:57;12.13;84.35
71942;DHT22;59997;53.300;-6.260;2023-06-26T01:22:48;12.16;84.15
71942;DHT22;59997;53.300;-6.260;2023-06-26T01:25:33;12.12;84.24
71942;DHT22;59997;53.300;-6.260;2023-06-26T01:28:05;12.05;84.41
71942;DHT22;59997;53.300;-6.260;2023-06-26T01:30:32;12.12;84.36
71942;DHT22;59997;53.300;-6.260;2023-06-26T01:32:59;12.26;84.15
71942;DHT22;59997;53.300;-6.260;2023-06-26T01:35:26;12.29;84.10
71942;DHT22;59997;53.300;-6.260;2023-06-26T01:37:52;12.34;83.85
71942;DHT22;59997;53.300;-6.260;2023-06-26T01:40:17;12.36;83.74
71942;DHT22;59997;53.300;-6.260;2023-06-26T01:42:43;12.39;83.71
71942;DHT22;59997;53.300;-6.260;2023-06-26T01:45:24;12.30;83.85
71942;DHT22;59997;53.300;-6.260;2023-06-26T01:47:52;12.36;83.88
71942;DHT22;59997;53.300;-6.260;2023-06-26T01:50:22;12.37;83.70
71942;DHT22;59997;53.300;-6.260;2023-06-26T01:53:07;12.37;83.58
71942;DHT22;59997;53.300;-6.260;2023-06-26T01:55:44;12.37;83.70
71942;DHT22;59997;53.300;-6.260;2023-06-26T01:58:13;12.37;83.60
71942;DHT22;59997;53.300;-6.260;2023-06-26T02:00:39;12.33;83.70
71942;DHT22;59997;53.300;-6.260;2023-06-26T02:03:05;12.23;83.88
71942;DHT22;59997;53.300;-6.260;2023-06-26T02:05:32;12.23;83.96
71942;DHT22;59997;53.300;-6.260;2023-06-26T02:07:57;12.22;84.09
71942;DHT22;59997;53.300;-6.260;2023-06-26T02:10:23;12.30;83.94
71942;DHT22;59997;53.300;-6.260;2023-06-26T02:12:48;12.33;83.83
71942;DHT22;59997;53.300;-6.260;2023-06-26T02:15:14;12.29;83.88
71942;DHT22;59997;53.300;-6.260;2023-06-26T02:17:39;12.32;83.88
71942;DHT22;59997;53.300;-6.260;2023-06-26T02:20:05;12.32;84.01
71942;DHT22;59997;53.300;-6.260;2023-06-26T02:22:31;12.26;84.19
71942;DHT22;59997;53.300;-6.260;2023-06-26T02:24:57;12.21;84.24
71942;DHT22;59997;53.300;-6.260;2023-06-26T02:27:22;12.26;84.24
71942;DHT22;59997;53.300;-6.260;2023-06-26T02:29:48;12.26;84.16
71942;DHT22;59997;53.300;-6.260;2023-06-26T02:32:13;12.25;84.19
71942;DHT22;59997;53.300;-6.260;2023-06-26T02:34:39;12.21;84.27
71942;DHT22;59997;53.300;-6.260;2023-06-26T02:37:04;12.19;84.36
71942;DHT22;59997;53.300;-6.260;2023-06-26T02:39:31;12.21;84.39
71942;DHT22;59997;53.300;-6.260;2023-06-26T02:41:57;12.13;84.46
71942;DHT22;59997;53.300;-6.260;2023-06-26T02:44:22;12.13;84.61
71942;DHT22;59997;53.300;-6.260;2023-06-26T02:46:48;12.12;84.62
71942;DHT22;59997;53.300;-6.260;2023-06-26T02:49:13;12.11;84.61
71942;DHT22;59997;53.300;-6.260;2023-06-26T02:51:39;12.15;84.59
71942;DHT22;59997;53.300;-6.260;2023-06-26T02:54:04;12.16;84.57
71942;DHT22;59997;53.300;-6.260;2023-06-26T02:56:30;12.28;84.30
71942;DHT22;59997;53.300;-6.260;2023-06-26T02:58:57;12.33;84.01
71942;DHT22;59997;53.300;-6.260;2023-06-26T03:01:22;12.29;84.01
71942;DHT22;59997;53.300;-6.260;2023-06-26T03:03:48;12.19;84.30
71942;DHT22;59997;53.300;-6.260;2023-06-26T03:06:14;12.15;84.45
71942;DHT22;59997;53.300;-6.260;2023-06-26T03:08:40;12.13;84.49
71942;DHT22;59997;53.300;-6.260;2023-06-26T03:11:06;12.21;84.42
71942;DHT22;59997;53.300;-6.260;2023-06-26T03:13:34;12.21;84.35
71942;DHT22;59997;53.300;-6.260;2023-06-26T03:15:59;12.18;84.43
71942;DHT22;59997;53.300;-6.260;2023-06-26T03:18:25;12.19;84.48
71942;DHT22;59997;53.300;-6.260;2023-06-26T03:20:51;12.18;84.40
71942;DHT22;59997;53.300;-6.260;2023-06-26T03:23:19;12.08;84.51
71942;DHT22;59997;53.300;-6.260;2023-06-26T03:25:45;11.95;84.81
71942;DHT22;59997;53.300;-6.260;2023-06-26T03:28:11;11.98;84.97
71942;DHT22;59997;53.300;-6.260;2023-06-26T03:30:36;11.95;84.94
71942;DHT22;59997;53.300;-6.260;2023-06-26T03:33:01;11.97;84.94
71942;DHT22;59997;53.300;-6.260;2023-06-26T03:35:27;12.01;84.92
71942;DHT22;59997;53.300;-6.260;2023-06-26T03:37:53;12.01;84.91
71942;DHT22;59997;53.300;-6.260;2023-06-26T03:40:18;11.94;85.00
71942;DHT22;59997;53.300;-6.260;2023-06-26T03:42:44;11.98;84.98
71942;DHT22;59997;53.300;-6.260;2023-06-26T03:45:10;11.92;85.03
71942;DHT22;59997;53.300;-6.260;2023-06-26T03:47:35;11.91;85.04
71942;DHT22;59997;53.300;-6.260;2023-06-26T03:50:01;11.92;84.96
71942;DHT22;59997;53.300;-6.260;2023-06-26T03:52:26;11.89;85.03
71942;DHT22;59997;53.300;-6.260;2023-06-26T03:54:52;11.87;85.16
71942;DHT22;59997;53.300;-6.260;2023-06-26T03:57:17;11.94;85.16
71942;DHT22;59997;53.300;-6.260;2023-06-26T03:59:43;11.94;85.10
71942;DHT22;59997;53.300;-6.260;2023-06-26T04:02:08;12.01;84.94
71942;DHT22;59997;53.300;-6.260;2023-06-26T04:04:34;11.98;84.84
71942;DHT22;59997;53.300;-6.260;2023-06-26T04:06:59;11.98;84.79
71942;DHT22;59997;53.300;-6.260;2023-06-26T04:09:25;11.99;84.78
71942;DHT22;59997;53.300;-6.260;2023-06-26T04:11:51;12.04;84.71
71942;DHT22;59997;53.300;-6.260;2023-06-26T04:14:17;12.05;84.70
71942;DHT22;59997;53.300;-6.260;2023-06-26T04:16:43;12.01;84.72
71942;DHT22;59997;53.300;-6.260;2023-06-26T04:19:09;11.94;84.85
71942;DHT22;59997;53.300;-6.260;2023-06-26T04:21:35;11.91;84.93
71942;DHT22;59997;53.300;-6.260;2023-06-26T04:24:01;11.95;84.89
71942;DHT22;59997;53.300;-6.260;2023-06-26T04:26:26;12.02;84.80
71942;DHT22;59997;53.300;-6.260;2023-06-26T04:28:53;12.05;84.74
71942;DHT22;59997;53.300;-6.260;2023-06-26T04:31:19;12.09;84.67
71942;DHT22;59997;53.300;-6.260;2023-06-26T04:33:44;12.13;84.56
71942;DHT22;59997;53.300;-6.260;2023-06-26T04:36:10;12.09;84.54
71942;DHT22;59997;53.300;-6.260;2023-06-26T04:38:36;12.11;84.63
71942;DHT22;59997;53.300;-6.260;2023-06-26T04:41:02;12.12;84.73
71942;DHT22;59997;53.300;-6.260;2023-06-26T04:43:27;12.06;84.82
71942;DHT22;59997;53.300;-6.260;2023-06-26T04:45:53;12.09;84.88
71942;DHT22;59997;53.300;-6.260;2023-06-26T04:48:19;12.12;84.72
71942;DHT22;59997;53.300;-6.260;2023-06-26T04:50:44;12.15;84.65
71942;DHT22;59997;53.300;-6.260;2023-06-26T04:53:17;12.21;84.49
71942;DHT22;59997;53.300;-6.260;2023-06-26T04:55:43;12.28;84.38
71942;DHT22;59997;53.300;-6.260;2023-06-26T04:58:08;12.25;84.30
71942;DHT22;59997;53.300;-6.260;2023-06-26T05:00:34;12.29;84.37
71942;DHT22;59997;53.300;-6.260;2023-06-26T05:03:01;12.34;84.45
71942;DHT22;59997;53.300;-6.260;2023-06-26T05:05:29;12.36;84.28
71942;DHT22;59997;53.300;-6.260;2023-06-26T05:07:55;12.34;84.27
71942;DHT22;59997;53.300;-6.260;2023-06-26T05:10:21;12.41;84.20
71942;DHT22;59997;53.300;-6.260;2023-06-26T05:12:48;12.36;84.34
71942;DHT22;59997;53.300;-6.260;2023-06-26T05:15:14;12.40;84.24
71942;DHT22;59997;53.300;-6.260;2023-06-26T05:17:39;12.39;84.23
71942;DHT22;59997;53.300;-6.260;2023-06-26T05:20:05;12.44;84.19
71942;DHT22;59997;53.300;-6.260;2023-06-26T05:22:34;12.44;84.32
71942;DHT22;59997;53.300;-6.260;2023-06-26T05:25:01;12.50;84.27
71942;DHT22;59997;53.300;-6.260;2023-06-26T05:27:27;12.53;84.19
71942;DHT22;59997;53.300;-6.260;2023-06-26T05:29:53;12.60;84.24
71942;DHT22;59997;53.300;-6.260;2023-06-26T05:32:19;12.65;84.01
71942;DHT22;59997;53.300;-6.260;2023-06-26T05:34:48;12.75;83.84
71942;DHT22;59997;53.300;-6.260;2023-06-26T05:37:21;12.80;83.89
71942;DHT22;59997;53.300;-6.260;2023-06-26T05:39:47;12.87;83.49
71942;DHT22;59997;53.300;-6.260;2023-06-26T05:42:14;12.89;83.25
71942;DHT22;59997;53.300;-6.260;2023-06-26T05:44:40;12.98;83.21
71942;DHT22;59997;53.300;-6.260;2023-06-26T05:47:05;13.10;83.02
71942;DHT22;59997;53.300;-6.260;2023-06-26T05:49:31;13.28;82.38
71942;DHT22;59997;53.300;-6.260;2023-06-26T05:51:57;13.39;82.18
71942;DHT22;59997;53.300;-6.260;2023-06-26T05:54:24;13.37;82.13
71942;DHT22;59997;53.300;-6.260;2023-06-26T05:56:52;13.41;82.15
71942;DHT22;59997;53.300;-6.260;2023-06-26T05:59:22;13.50;82.06
71942;DHT22;59997;53.300;-6.260;2023-06-26T06:01:47;13.57;81.96
71942;DHT22;59997;53.300;-6.260;2023-06-26T06:04:13;13.65;81.70
71942;DHT22;59997;53.300;-6.260;2023-06-26T06:06:39;13.90;81.41
71942;DHT22;59997;53.300;-6.260;2023-06-26T06:09:04;14.40;80.14
71942;DHT22;59997;53.300;-6.260;2023-06-26T06:11:30;14.96;79.56
71942;DHT22;59997;53.300;-6.260;2023-06-26T06:13:55;15.27;78.25
71942;DHT22;59997;53.300;-6.260;2023-06-26T06:16:21;15.19;77.59
71942;DHT22;59997;53.300;-6.260;2023-06-26T06:18:46;15.03;77.75
71942;DHT22;59997;53.300;-6.260;2023-06-26T06:21:12;15.02;78.35
71942;DHT22;59997;53.300;-6.260;2023-06-26T06:23:37;15.00;77.72
71942;DHT22;59997;53.300;-6.260;2023-06-26T06:26:03;15.06;78.06
71942;DHT22;59997;53.300;-6.260;2023-06-26T06:28:29;15.03;77.68
71942;DHT22;59997;53.300;-6.260;2023-06-26T06:30:54;15.08;77.49
71942;DHT22;59997;53.300;-6.260;2023-06-26T06:33:20;15.26;77.58
71942;DHT22;59997;53.300;-6.260;2023-06-26T06:35:46;15.32;77.34
71942;DHT22;59997;53.300;-6.260;2023-06-26T06:38:11;15.32;77.27
71942;DHT22;59997;53.300;-6.260;2023-06-26T06:40:37;15.44;76.81
71942;DHT22;59997;53.300;-6.260;2023-06-26T06:43:02;15.52;76.73
71942;DHT22;59997;53.300;-6.260;2023-06-26T06:45:29;15.37;76.58
71942;DHT22;59997;53.300;-6.260;2023-06-26T06:47:54;15.38;77.26
71942;DHT22;59997;53.300;-6.260;2023-06-26T06:50:20;15.48;76.75
71942;DHT22;59997;53.300;-6.260;2023-06-26T06:52:45;15.49;76.57
71942;DHT22;59997;53.300;-6.260;2023-06-26T06:55:11;15.58;76.35
71942;DHT22;59997;53.300;-6.260;2023-06-26T06:57:37;15.75;76.05
71942;DHT22;59997;53.300;-6.260;2023-06-26T07:00:13;15.79;75.43
71942;DHT22;59997;53.300;-6.260;2023-06-26T07:02:42;15.81;75.84
71942;DHT22;59997;53.300;-6.260;2023-06-26T07:05:08;15.96;75.84
71942;DHT22;59997;53.300;-6.260;2023-06-26T07:07:35;16.22;75.48
71942;DHT22;59997;53.300;-6.260;2023-06-26T07:10:03;16.34;74.60
71942;DHT22;59997;53.300;-6.260;2023-06-26T07:12:29;16.48;74.16
71942;DHT22;59997;53.300;-6.260;2023-06-26T07:14:55;16.60;73.55
71942;DHT22;59997;53.300;-6.260;2023-06-26T07:17:21;16.91;72.98
71942;DHT22;59997;53.300;-6.260;2023-06-26T07:19:47;17.03;71.41
71942;DHT22;59997;53.300;-6.260;2023-06-26T07:22:13;17.03;72.01
71942;DHT22;59997;53.300;-6.260;2023-06-26T07:24:39;17.20;71.43
71942;DHT22;59997;53.300;-6.260;2023-06-26T07:27:04;17.43;71.96
71942;DHT22;59997;53.300;-6.260;2023-06-26T07:29:30;17.32;70.63
71942;DHT22;59997;53.300;-6.260;2023-06-26T07:31:55;17.28;70.74
71942;DHT22;59997;53.300;-6.260;2023-06-26T07:34:21;17.08;71.83
71942;DHT22;59997;53.300;-6.260;2023-06-26T07:36:46;17.15;72.35
71942;DHT22;59997;53.300;-6.260;2023-06-26T07:39:12;17.06;71.67
71942;DHT22;59997;53.300;-6.260;2023-06-26T07:41:37;16.97;71.84
71942;DHT22;59997;53.300;-6.260;2023-06-26T07:44:03;17.10;72.19
71942;DHT22;59997;53.300;-6.260;2023-06-26T07:46:28;17.42;71.70
71942;DHT22;59997;53.300;-6.260;2023-06-26T07:48:54;17.38;71.17
71942;DHT22;59997;53.300;-6.260;2023-06-26T07:51:20;17.36;72.16
71942;DHT22;59997;53.300;-6.260;2023-06-26T07:53:46;17.47;71.45
71942;DHT22;59997;53.300;-6.260;2023-06-26T07:56:11;17.63;71.02
71942;DHT22;59997;53.300;-6.260;2023-06-26T07:58:37;17.65;71.54
71942;DHT22;59997;53.300;-6.260;2023-06-26T08:01:02;17.76;71.61
71942;DHT22;59997;53.300;-6.260;2023-06-26T08:03:27;17.74;70.81
71942;DHT22;59997;53.300;-6.260;2023-06-26T08:05:53;17.77;71.34
71942;DHT22;59997;53.300;-6.260;2023-06-26T08:08:19;18.09;70.28
71942;DHT22;59997;53.300;-6.260;2023-06-26T08:10:44;17.97;70.01
71942;DHT22;59997;53.300;-6.260;2023-06-26T08:13:10;17.91;69.47
71942;DHT22;59997;53.300;-6.260;2023-06-26T08:15:35;18.35;70.48
71942;DHT22;59997;53.300;-6.260;2023-06-26T08:18:01;18.45;69.93
71942;DHT22;59997;53.300;-6.260;2023-06-26T08:20:27;18.64;67.57
71942;DHT22;59997;53.300;-6.260;2023-06-26T08:22:53;18.70;69.09
71942;DHT22;59997;53.300;-6.260;2023-06-26T08:25:20;18.77;68.10
71942;DHT22;59997;53.300;-6.260;2023-06-26T08:27:45;18.90;68.08
71942;DHT22;59997;53.300;-6.260;2023-06-26T08:30:11;19.07;67.79
71942;DHT22;59997;53.300;-6.260;2023-06-26T08:32:37;19.09;65.96
71942;DHT22;59997;53.300;-6.260;2023-06-26T08:35:03;19.29;66.23
71942;DHT22;59997;53.300;-6.260;2023-06-26T08:37:28;19.08;66.70
71942;DHT22;59997;53.300;-6.260;2023-06-26T08:39:54;19.18;66.58
71942;DHT22;59997;53.300;-6.260;2023-06-26T08:42:19;19.63;65.72
71942;DHT22;59997;53.300;-6.260;2023-06-26T08:44:45;19.36;64.47
71942;DHT22;59997;53.300;-6.260;2023-06-26T08:47:11;19.92;63.20
71942;DHT22;59997;53.300;-6.260;2023-06-26T08:49:53;19.49;65.27
71942;DHT22;59997;53.300;-6.260;2023-06-26T08:52:25;20.19;62.03
71942;DHT22;59997;53.300;-6.260;2023-06-26T08:54:58;20.33;62.52
71942;DHT22;59997;53.300;-6.260;2023-06-26T08:57:25;20.29;63.24
71942;DHT22;59997;53.300;-6.260;2023-06-26T08:59:52;20.65;62.80
71942;DHT22;59997;53.300;-6.260;2023-06-26T09:02:18;21.62;59.03
71942;DHT22;59997;53.300;-6.260;2023-06-26T09:04:43;21.61;56.87
71942;DHT22;59997;53.300;-6.260;2023-06-26T09:07:09;22.03;57.71
71942;DHT22;59997;53.300;-6.260;2023-06-26T09:09:35;21.51;56.58
71942;DHT22;59997;53.300;-6.260;2023-06-26T09:12:02;21.37;58.00
71942;DHT22;59997;53.300;-6.260;2023-06-26T09:14:29;22.33;55.95
71942;DHT22;59997;53.300;-6.260;2023-06-26T09:16:54;21.95;58.90
71942;DHT22;59997;53.300;-6.260;2023-06-26T09:19:20;21.81;57.50
71942;DHT22;59997;53.300;-6.260;2023-06-26T09:21:49;21.95;57.30
71942;DHT22;59997;53.300;-6.260;2023-06-26T09:24:15;20.58;60.12
71942;DHT22;59997;53.300;-6.260;2023-06-26T09:26:41;21.51;55.43
71942;DHT22;59997;53.300;-6.260;2023-06-26T09:29:07;21.74;55.31
71942;DHT22;59997;53.300;-6.260;2023-06-26T09:31:43;20.98;55.96
71942;DHT22;59997;53.300;-6.260;2023-06-26T09:34:09;21.50;56.92
71942;DHT22;59997;53.300;-6.260;2023-06-26T09:36:36;21.47;54.38
71942;DHT22;59997;53.300;-6.260;2023-06-26T09:39:03;22.37;55.53
71942;DHT22;59997;53.300;-6.260;2023-06-26T09:41:30;23.27;54.89
71942;DHT22;59997;53.300;-6.260;2023-06-26T09:44:00;23.54;52.69
71942;DHT22;59997;53.300;-6.260;2023-06-26T09:46:27;23.59;51.46
71942;DHT22;59997;53.300;-6.260;2023-06-26T09:51:36;23.89;53.55
71942;DHT22;59997;53.300;-6.260;2023-06-26T09:54:03;22.36;54.44
71942;DHT22;59997;53.300;-6.260;2023-06-26T09:56:29;22.91;54.31
71942;DHT22;59997;53.300;-6.260;2023-06-26T09:58:56;23.41;49.47
71942;DHT22;59997;53.300;-6.260;2023-06-26T10:01:23;22.24;54.75
71942;DHT22;59997;53.300;-6.260;2023-06-26T10:03:49;22.68;55.22
71942;DHT22;59997;53.300;-6.260;2023-06-26T10:06:15;23.33;50.15
71942;DHT22;59997;53.300;-6.260;2023-06-26T10:08:44;23.21;51.01
71942;DHT22;59997;53.300;-6.260;2023-06-26T10:11:14;22.27;55.23
71942;DHT22;59997;53.300;-6.260;2023-06-26T10:13:43;21.07;55.61
71942;DHT22;59997;53.300;-6.260;2023-06-26T10:16:12;20.11;60.12
71942;DHT22;59997;53.300;-6.260;2023-06-26T10:18:39;20.37;59.69
71942;DHT22;59997;53.300;-6.260;2023-06-26T10:21:06;21.92;58.41
71942;DHT22;59997;53.300;-6.260;2023-06-26T10:23:34;20.99;57.24
71942;DHT22;59997;53.300;-6.260;2023-06-26T10:26:01;21.29;55.83
71942;DHT22;59997;53.300;-6.260;2023-06-26T10:28:32;21.79;55.58
71942;DHT22;59997;53.300;-6.260;2023-06-26T10:30:59;21.62;56.39
71942;DHT22;59997;53.300;-6.260;2023-06-26T10:33:26;22.62;53.16
71942;DHT22;59997;53.300;-6.260;2023-06-26T10:35:51;24.12;50.70
71942;DHT22;59997;53.300;-6.260;2023-06-26T10:38:17;23.26;50.78
71942;DHT22;59997;53.300;-6.260;2023-06-26T10:40:47;21.89;53.98
71942;DHT22;59997;53.300;-6.260;2023-06-26T10:43:16;20.88;56.59
71942;DHT22;59997;53.300;-6.260;2023-06-26T10:45:46;20.20;58.23
71942;DHT22;59997;53.300;-6.260;2023-06-26T10:48:17;19.59;59.06
71942;DHT22;59997;53.300;-6.260;2023-06-26T10:50:43;19.30;59.00
71942;DHT22;59997;53.300;-6.260;2023-06-26T10:55:49;19.64;59.66
71942;DHT22;59997;53.300;-6.260;2023-06-26T11:01:24;19.26;60.11
71942;DHT22;59997;53.300;-6.260;2023-06-26T11:04:09;19.78;61.50
71942;DHT22;59997;53.300;-6.260;2023-06-26T11:06:40;19.43;61.23
71942;DHT22;59997;53.300;-6.260;2023-06-26T11:09:07;19.01;63.06
71942;DHT22;59997;53.300;-6.260;2023-06-26T11:14:17;17.96;67.91
71942;DHT22;59997;53.300;-6.260;2023-06-26T11:16:43;16.97;73.35
71942;DHT22;59997;53.300;-6.260;2023-06-26T11:19:10;16.65;75.41
71942;DHT22;59997;53.300;-6.260;2023-06-26T11:21:37;16.80;76.59
71942;DHT22;59997;53.300;-6.260;2023-06-26T11:24:04;17.06;77.00
71942;DHT22;59997;53.300;-6.260;2023-06-26T11:26:37;17.28;74.86
71942;DHT22;59997;53.300;-6.260;2023-06-26T11:29:03;17.49;74.30
71942;DHT22;59997;53.300;-6.260;2023-06-26T11:31:33;17.94;72.35
71942;DHT22;59997;53.300;-6.260;2023-06-26T11:34:10;18.53;70.71
71942;DHT22;59997;53.300;-6.260;2023-06-26T11:36:37;19.42;70.83
71942;DHT22;59997;53.300;-6.260;2023-06-26T11:39:06;20.16;67.68
71942;DHT22;59997;53.300;-6.260;2023-06-26T11:41:34;20.29;64.87
71942;DHT22;59997;53.300;-6.260;2023-06-26T11:44:03;20.19;65.61
71942;DHT22;59997;53.300;-6.260;2023-06-26T11:46:30;19.61;63.22
71942;DHT22;59997;53.300;-6.260;2023-06-26T11:48:55;19.37;65.79
71942;DHT22;59997;53.300;-6.260;2023-06-26T11:51:21;19.29;66.12
71942;DHT22;59997;53.300;-6.260;2023-06-26T11:53:48;19.01;68.63
71942;DHT22;59997;53.300;-6.260;2023-06-26T11:56:14;18.40;70.18
71942;DHT22;59997;53.300;-6.260;2023-06-26T11:59:05;18.19;69.89
71942;DHT22;59997;53.300;-6.260;2023-06-26T12:04:01;19.56;67.72
71942;DHT22;59997;53.300;-6.260;2023-06-26T12:06:29;19.81;66.24
71942;DHT22;59997;53.300;-6.260;2023-06-26T12:08:56;20.53;64.61
71942;DHT22;59997;53.300;-6.260;2023-06-26T12:11:23;21.82;63.14
71942;DHT22;59997;53.300;-6.260;2023-06-26T12:13:49;21.79;61.10
71942;DHT22;59997;53.300;-6.260;2023-06-26T12:16:15;22.20;65.38
71942;DHT22;59997;53.300;-6.260;2023-06-26T12:18:41;22.03;61.01
71942;DHT22;59997;53.300;-6.260;2023-06-26T12:21:06;22.21;61.25
71942;DHT22;59997;53.300;-6.260;2023-06-26T12:23:41;22.59;56.85
71942;DHT22;59997;53.300;-6.260;2023-06-26T12:26:17;22.62;58.56
71942;DHT22;59997;53.300;-6.260;2023-06-26T12:28:44;22.92;57.11
71942;DHT22;59997;53.300;-6.260;2023-06-26T12:31:19;23.27;55.29
71942;DHT22;59997;53.300;-6.260;2023-06-26T12:33:45;23.40;55.95
71942;DHT22;59997;53.300;-6.260;2023-06-26T12:36:12;23.00;54.94
71942;DHT22;59997;53.300;-6.260;2023-06-26T12:38:37;22.71;54.42
71942;DHT22;59997;53.300;-6.260;2023-06-26T12:41:03;22.85;55.20
71942;DHT22;59997;53.300;-6.260;2023-06-26T12:43:29;23.09;55.36
71942;DHT22;59997;53.300;-6.260;2023-06-26T12:45:55;23.28;51.84
71942;DHT22;59997;53.300;-6.260;2023-06-26T12:48:40;22.98;55.08
71942;DHT22;59997;53.300;-6.260;2023-06-26T12:51:12;23.16;53.77
71942;DHT22;59997;53.300;-6.260;2023-06-26T12:53:39;22.88;51.68
71942;DHT22;59997;53.300;-6.260;2023-06-26T12:56:08;23.00;53.65
71942;DHT22;59997;53.300;-6.260;2023-06-26T12:58:34;22.67;50.23
71942;DHT22;59997;53.300;-6.260;2023-06-26T13:01:03;22.91;52.98
71942;DHT22;59997;53.300;-6.260;2023-06-26T13:03:29;23.44;51.85
71942;DHT22;59997;53.300;-6.260;2023-06-26T13:05:54;23.75;51.24
71942;DHT22;59997;53.300;-6.260;2023-06-26T13:08:20;22.79;52.58
71942;DHT22;59997;53.300;-6.260;2023-06-26T13:10:45;22.07;53.90
71942;DHT22;59997;53.300;-6.260;2023-06-26T13:13:11;21.83;55.35
71942;DHT22;59997;53.300;-6.260;2023-06-26T13:15:37;22.29;57.74
71942;DHT22;59997;53.300;-6.260;2023-06-26T13:18:03;23.06;54.00
71942;DHT22;59997;53.300;-6.260;2023-06-26T13:20:28;22.65;53.98
71942;DHT22;59997;53.300;-6.260;2023-06-26T13:22:54;22.82;54.89
71942;DHT22;59997;53.300;-6.260;2023-06-26T13:25:21;23.23;56.45
71942;DHT22;59997;53.300;-6.260;2023-06-26T13:27:46;23.09;55.06
71942;DHT22;59997;53.300;-6.260;2023-06-26T13:30:12;23.09;57.15
71942;DHT22;59997;53.300;-6.260;2023-06-26T13:32:38;23.13;56.13
71942;DHT22;59997;53.300;-6.260;2023-06-26T13:35:03;23.34;55.65
71942;DHT22;59997;53.300;-6.260;2023-06-26T13:37:29;22.96;57.07
71942;DHT22;59997;53.300;-6.260;2023-06-26T13:39:55;22.75;56.77
71942;DHT22;59997;53.300;-6.260;2023-06-26T13:42:20;22.95;56.26
71942;DHT22;59997;53.300;-6.260;2023-06-26T13:44:46;22.21;57.23
71942;DHT22;59997;53.300;-6.260;2023-06-26T13:47:13;22.10;58.01
71942;DHT22;59997;53.300;-6.260;2023-06-26T13:49:40;22.18;58.75
71942;DHT22;59997;53.300;-6.260;2023-06-26T13:52:06;22.54;58.10
71942;DHT22;59997;53.300;-6.260;2023-06-26T13:54:35;22.65;58.34
71942;DHT22;59997;53.300;-6.260;2023-06-26T13:57:01;23.04;54.27
71942;DHT22;59997;53.300;-6.260;2023-06-26T13:59:28;23.09;56.14
71942;DHT22;59997;53.300;-6.260;2023-06-26T14:01:54;23.13;58.34
71942;DHT22;59997;53.300;-6.260;2023-06-26T14:04:19;23.11;56.71
71942;DHT22;59997;53.300;-6.260;2023-06-26T14:06:44;22.98;55.49
71942;DHT22;59997;53.300;-6.260;2023-06-26T14:09:11;23.11;55.35
71942;DHT22;59997;53.300;-6.260;2023-06-26T14:11:36;23.17;55.91
71942;DHT22;59997;53.300;-6.260;2023-06-26T14:14:02;23.23;56.17
71942;DHT22;59997;53.300;-6.260;2023-06-26T14:16:28;22.91;55.00
71942;DHT22;59997;53.300;-6.260;2023-06-26T14:18:54;22.00;55.84
71942;DHT22;59997;53.300;-6.260;2023-06-26T14:21:20;21.85;56.93
71942;DHT22;59997;53.300;-6.260;2023-06-26T14:23:45;21.27;57.23
71942;DHT22;59997;53.300;-6.260;2023-06-26T14:26:11;21.12;55.74
71942;DHT22;59997;53.300;-6.260;2023-06-26T14:28:38;21.18;55.62
71942;DHT22;59997;53.300;-6.260;2023-06-26T14:31:03;21.05;57.64
71942;DHT22;59997;53.300;-6.260;2023-06-26T14:33:29;21.05;57.00
71942;DHT22;59997;53.300;-6.260;2023-06-26T14:35:54;20.92;57.80
71942;DHT22;59997;53.300;-6.260;2023-06-26T14:38:19;21.15;58.05
71942;DHT22;59997;53.300;-6.260;2023-06-26T14:40:45;21.26;58.72
71942;DHT22;59997;53.300;-6.260;2023-06-26T14:43:10;21.10;58.01
71942;DHT22;59997;53.300;-6.260;2023-06-26T14:45:36;21.50;56.76
71942;DHT22;59997;53.300;-6.260;2023-06-26T14:48:01;21.95;56.91
71942;DHT22;59997;53.300;-6.260;2023-06-26T14:50:27;22.55;53.76
71942;DHT22;59997;53.300;-6.260;2023-06-26T14:52:52;23.14;52.91
71942;DHT22;59997;53.300;-6.260;2023-06-26T14:55:18;23.33;53.19
71942;DHT22;59997;53.300;-6.260;2023-06-26T14:57:43;22.54;52.27
71942;DHT22;59997;53.300;-6.260;2023-06-26T15:00:10;22.36;53.52
71942;DHT22;59997;53.300;-6.260;2023-06-26T15:02:36;21.98;53.11
71942;DHT22;59997;53.300;-6.260;2023-06-26T15:05:02;22.02;53.36
71942;DHT22;59997;53.300;-6.260;2023-06-26T15:07:27;22.05;56.67
71942;DHT22;59997;53.300;-6.260;2023-06-26T15:09:53;21.79;56.15
71942;DHT22;59997;53.300;-6.260;2023-06-26T15:12:18;21.50;56.33
71942;DHT22;59997;53.300;-6.260;2023-06-26T15:14:44;22.13;55.98
71942;DHT22;59997;53.300;-6.260;2023-06-26T15:17:09;22.61;53.33
71942;DHT22;59997;53.300;-6.260;2023-06-26T15:19:36;22.50;53.17
71942;DHT22;59997;53.300;-6.260;2023-06-26T15:22:01;21.91;53.81
71942;DHT22;59997;53.300;-6.260;2023-06-26T15:24:28;21.62;55.75
71942;DHT22;59997;53.300;-6.260;2023-06-26T15:26:53;21.20;58.50